Weather at Shell Panaga Heliport

Public forecast

Using degrees Celsius for public forecast. Weather courtesy of forecast.io.

Closest aviation weather report (METAR) to Shell Panaga Heliport

Report is more than 6 hours old.

Closest report is Miri Airport, 25.0 nm (46.4 km) SW. Retrieved 2022/09/17 19:00 UTC (12 days ago):

WBGR 171900Z 13005KT 9999 SCT016 26/24 Q1009

Closest aviation forecast (TAF) to Shell Panaga Heliport

Forecast is more than 12 hours old.

Closest forecast is Miri Airport, 25.0 nm (46.4 km) SW. Retrieved 2022/09/17 18:00 UTC (13 days ago):

TAF WBGR 171700Z 1718/1818 32004KT 9999 SCT016 PROB40 1811/1815 3000 +TSRA FEW015CB SCT016